createdAt,value
2023-04-23T00:00:36.809Z,63.52
2023-04-23T00:05:42.248Z,64.02
2023-04-23T00:10:44.912Z,66.21
2023-04-23T00:15:48.529Z,66.70
2023-04-23T00:20:51.142Z,67.20
2023-04-23T00:25:54.028Z,67.86
2023-04-23T00:30:56.618Z,70.03
2023-04-23T00:35:59.360Z,71.74
2023-04-23T00:41:01.996Z,74.50
2023-04-23T00:46:05.237Z,72.34
2023-04-23T00:51:08.350Z,73.40
2023-04-23T00:56:11.766Z,76.88
2023-04-23T01:01:14.611Z,75.57
2023-04-23T01:06:17.798Z,78.60
2023-04-23T01:11:20.644Z,75.97
2023-04-23T01:16:23.412Z,76.88
2023-04-23T01:21:26.687Z,76.47
2023-04-23T01:26:30.035Z,76.40
2023-04-23T01:31:33.275Z,75.66
2023-04-23T01:36:36.586Z,75.45
2023-04-23T01:41:39.334Z,76.47
2023-04-23T01:46:42.457Z,77.25
2023-04-23T01:51:45.191Z,77.06
2023-04-23T01:56:48.185Z,75.68
2023-04-23T02:01:51.096Z,77.13
2023-04-23T02:06:54.094Z,78.66
2023-04-23T02:11:57.837Z,83.30
2023-04-23T02:17:00.359Z,85.17
2023-04-23T02:22:03.330Z,89.54
2023-04-23T02:27:06.111Z,93.36
2023-04-23T02:32:08.761Z,95.52
2023-04-23T02:37:12.253Z,98.69
2023-04-23T02:42:15.122Z,100.00
2023-04-23T02:47:17.920Z,100.00
2023-04-23T02:52:20.662Z,100.00
2023-04-23T02:57:23.478Z,100.00
2023-04-23T03:02:26.758Z,100.00
2023-04-23T03:07:29.474Z,100.00
2023-04-23T03:12:32.181Z,100.00
2023-04-23T03:17:36.143Z,100.00
2023-04-23T03:22:39.325Z,100.00
2023-04-23T03:27:44.143Z,100.00
2023-04-23T03:32:46.935Z,100.00
2023-04-23T03:37:49.751Z,100.00
2023-04-23T03:42:53.037Z,100.00
2023-04-23T03:48:02.426Z,100.00
2023-04-23T03:53:05.639Z,100.00
2023-04-23T03:58:36.874Z,100.00
2023-04-23T04:03:39.931Z,100.00
2023-04-23T04:08:42.636Z,100.00
2023-04-23T04:13:45.151Z,100.00
2023-04-23T04:18:48.020Z,100.00
2023-04-23T04:23:51.279Z,100.00
2023-04-23T04:28:53.787Z,100.00
2023-04-23T04:33:56.492Z,100.00
2023-04-23T04:38:58.972Z,100.00
2023-04-23T04:44:01.431Z,100.00
2023-04-23T04:49:04.388Z,100.00
2023-04-23T04:54:07.710Z,100.00
2023-04-23T04:59:10.164Z,100.00
2023-04-23T05:04:12.858Z,100.00
2023-04-23T05:09:15.620Z,100.00
2023-04-23T05:14:18.529Z,100.00
2023-04-23T05:19:21.225Z,100.00
2023-04-23T05:24:23.736Z,100.00
2023-04-23T05:29:26.453Z,100.00
2023-04-23T05:34:28.971Z,100.00
2023-04-23T05:39:31.472Z,100.00
2023-04-23T05:44:34.104Z,100.00
2023-04-23T05:49:36.563Z,100.00
2023-04-23T05:54:42.063Z,100.00
2023-04-23T05:59:44.788Z,100.00
2023-04-23T06:04:48.079Z,100.00
2023-04-23T06:09:51.048Z,100.00
2023-04-23T06:14:53.792Z,100.00
2023-04-23T06:19:56.505Z,100.00
2023-04-23T06:24:59.221Z,100.00
2023-04-23T06:30:01.705Z,100.00
2023-04-23T06:35:05.421Z,100.00
2023-04-23T06:40:08.575Z,100.00
2023-04-23T06:45:11.782Z,100.00
2023-04-23T06:50:14.519Z,100.00
2023-04-23T06:55:17.359Z,98.40
2023-04-23T07:00:20.758Z,97.07
2023-04-23T07:05:23.555Z,95.19
2023-04-23T07:10:26.267Z,87.17
2023-04-23T07:15:29.113Z,86.98
2023-04-23T07:20:31.950Z,85.83
2023-04-23T07:25:34.519Z,88.06
2023-04-23T07:30:37.158Z,85.84
2023-04-23T07:35:39.751Z,77.52
2023-04-23T07:40:42.400Z,75.93
2023-04-23T07:45:44.989Z,74.58
2023-04-23T07:50:47.975Z,71.96
2023-04-23T07:55:50.696Z,68.96
2023-04-23T08:00:53.420Z,75.15
2023-04-23T08:05:56.974Z,72.62
2023-04-23T08:10:59.672Z,73.56
2023-04-23T08:16:02.336Z,69.39
2023-04-23T08:21:05.018Z,67.25
2023-04-23T08:26:07.780Z,73.06
2023-04-23T08:31:22.821Z,80.86
2023-04-23T08:36:29.656Z,68.36
2023-04-23T08:41:40.408Z,67.33
2023-04-23T08:46:45.064Z,63.51
2023-04-23T08:51:52.446Z,60.71
2023-04-23T08:56:59.178Z,61.46
2023-04-23T09:02:08.391Z,63.97
2023-04-23T09:07:12.715Z,66.32
2023-04-23T09:12:16.913Z,64.15
2023-04-23T09:17:21.188Z,65.47
2023-04-23T09:22:39.695Z,64.66
2023-04-23T09:27:42.505Z,61.17
2023-04-23T09:32:47.271Z,59.59
2023-04-23T09:37:53.061Z,56.10
2023-04-23T09:42:56.065Z,55.63
2023-04-23T09:47:59.376Z,55.61
2023-04-23T09:53:02.178Z,45.76
2023-04-23T09:58:12.438Z,46.69
2023-04-23T10:03:16.129Z,45.86
2023-04-23T10:08:19.832Z,42.12
2023-04-23T10:13:22.367Z,38.57
2023-04-23T10:18:25.674Z,41.17
2023-04-23T10:23:28.355Z,41.81
2023-04-23T10:28:32.749Z,44.20
2023-04-23T10:33:42.914Z,43.66
2023-04-23T10:38:58.289Z,46.58
2023-04-23T10:44:03.036Z,49.63
2023-04-23T10:49:16.698Z,44.68
2023-04-23T10:54:20.823Z,44.01
2023-04-23T10:59:23.530Z,46.00
2023-04-23T11:04:27.828Z,47.95
2023-04-23T11:09:43.063Z,48.74
2023-04-23T11:14:50.722Z,49.11
2023-04-23T11:20:24.023Z,47.32
2023-04-23T11:25:28.191Z,48.79
2023-04-23T11:30:31.634Z,51.33
2023-04-23T11:35:40.884Z,51.46
2023-04-23T11:40:48.706Z,45.76
2023-04-23T11:45:51.560Z,41.31
2023-04-23T11:50:54.414Z,42.35
2023-04-23T11:55:58.109Z,42.97
2023-04-23T12:01:01.541Z,47.07
2023-04-23T12:06:04.089Z,48.40
2023-04-23T12:11:07.248Z,49.82
2023-04-23T12:16:11.067Z,49.46
2023-04-23T12:21:14.661Z,51.18
2023-04-23T12:26:17.969Z,51.18
2023-04-23T12:31:22.753Z,51.73
2023-04-23T12:36:32.125Z,47.09
2023-04-23T12:41:34.628Z,43.23
2023-04-23T12:46:37.313Z,38.85
2023-04-23T12:51:39.870Z,37.20
2023-04-23T12:56:42.713Z,41.02
2023-04-23T13:01:45.428Z,45.88
2023-04-23T13:06:48.578Z,40.45
2023-04-23T13:11:51.758Z,38.31
2023-04-23T13:16:54.892Z,41.02
2023-04-23T13:21:57.045Z,36.45
2023-04-23T13:26:59.710Z,34.85
2023-04-23T13:32:01.996Z,38.64
2023-04-23T13:37:05.966Z,40.96
2023-04-23T13:42:09.951Z,38.79
2023-04-23T13:47:12.447Z,40.51
2023-04-23T13:52:14.659Z,37.43
2023-04-23T13:57:16.871Z,34.83
2023-04-23T14:02:19.326Z,34.70
2023-04-23T14:07:21.713Z,34.41
2023-04-23T14:12:25.722Z,31.68
2023-04-23T14:17:28.143Z,33.84
2023-04-23T14:22:30.662Z,36.72
2023-04-23T14:27:41.001Z,35.61
2023-04-23T14:32:43.604Z,36.69
2023-04-23T14:37:46.172Z,37.92
2023-04-23T14:42:49.776Z,38.36
2023-04-23T14:47:52.242Z,38.61
2023-04-23T14:52:55.270Z,40.29
2023-04-23T14:57:57.474Z,41.65
2023-04-23T15:03:00.056Z,41.87
2023-04-23T15:08:02.248Z,45.38
2023-04-23T15:13:24.606Z,45.58
2023-04-23T15:18:27.553Z,45.67
2023-04-23T15:23:31.902Z,44.92
2023-04-23T15:28:34.308Z,45.19
2023-04-23T15:33:36.518Z,46.92
2023-04-23T15:38:38.883Z,58.50
2023-04-23T15:43:41.045Z,56.31
2023-04-23T15:48:44.171Z,65.21
2023-04-23T15:53:46.506Z,66.70
2023-04-23T15:58:49.981Z,65.39
2023-04-23T16:04:08.638Z,64.45
2023-04-23T16:09:12.815Z,67.95
2023-04-23T16:14:15.148Z,68.86
2023-04-23T16:19:17.969Z,68.70
2023-04-23T16:24:22.335Z,69.62
2023-04-23T16:29:25.038Z,67.46
2023-04-23T16:34:27.203Z,76.80
2023-04-23T16:39:32.203Z,100.00
2023-04-23T16:44:34.578Z,100.00
2023-04-23T16:49:36.926Z,94.74
2023-04-23T16:54:39.224Z,99.35
2023-04-23T16:59:41.611Z,100.00
2023-04-23T17:04:44.276Z,100.00
2023-04-23T17:09:46.581Z,100.00
2023-04-23T17:14:49.579Z,100.00
2023-04-23T17:19:52.540Z,100.00
2023-04-23T17:24:54.728Z,100.00
2023-04-23T17:29:56.927Z,98.14
2023-04-23T17:35:09.552Z,94.57
2023-04-23T17:40:13.317Z,92.57
2023-04-23T17:45:15.532Z,93.80
2023-04-23T17:50:17.742Z,95.78
2023-04-23T17:55:22.076Z,97.29
2023-04-23T18:00:27.251Z,97.01
2023-04-23T18:05:29.694Z,98.95
2023-04-23T18:10:32.017Z,94.86
2023-04-23T18:15:34.603Z,93.20
2023-04-23T18:20:39.052Z,92.33
2023-04-23T18:25:42.222Z,88.30
2023-04-23T18:30:44.702Z,90.33
2023-04-23T18:35:48.560Z,95.62
2023-04-23T18:40:50.976Z,99.09
2023-04-23T18:45:53.716Z,100.00
2023-04-23T18:50:57.976Z,100.00
2023-04-23T18:56:00.097Z,100.00
2023-04-23T19:01:02.748Z,100.00
2023-04-23T19:06:07.875Z,100.00
2023-04-23T19:11:10.193Z,100.00
2023-04-23T19:16:12.459Z,98.13
2023-04-23T19:21:14.665Z,100.00
2023-04-23T19:26:16.734Z,100.00
2023-04-23T19:31:19.076Z,100.00
2023-04-23T19:36:21.370Z,100.00
2023-04-23T19:41:23.841Z,100.00
2023-04-23T19:46:26.262Z,100.00
2023-04-23T19:51:35.541Z,100.00
2023-04-23T19:56:37.750Z,100.00
2023-04-23T20:01:40.959Z,100.00
2023-04-23T20:06:46.241Z,100.00
2023-04-23T20:11:48.450Z,100.00
2023-04-23T20:16:50.867Z,100.00
2023-04-23T20:21:53.905Z,100.00
2023-04-23T20:26:56.786Z,100.00
2023-04-23T20:32:02.748Z,100.00
2023-04-23T20:37:07.016Z,100.00
2023-04-23T20:42:09.201Z,100.00
2023-04-23T20:47:11.761Z,100.00
2023-04-23T20:52:15.451Z,100.00
2023-04-23T20:57:17.842Z,100.00
2023-04-23T21:02:20.333Z,100.00
2023-04-23T21:07:22.804Z,100.00
2023-04-23T21:12:25.239Z,100.00
2023-04-23T21:17:27.606Z,100.00
2023-04-23T21:22:29.897Z,100.00
2023-04-23T21:27:32.257Z,100.00
2023-04-23T21:32:34.563Z,100.00
2023-04-23T21:37:38.177Z,100.00
2023-04-23T21:42:40.419Z,100.00
2023-04-23T21:47:42.623Z,100.00
2023-04-23T21:52:45.244Z,100.00
2023-04-23T21:57:51.291Z,100.00
2023-04-23T22:02:56.475Z,100.00
2023-04-23T22:07:59.658Z,100.00
2023-04-23T22:13:02.295Z,100.00
2023-04-23T22:18:05.616Z,100.00
2023-04-23T22:23:08.027Z,100.00
2023-04-23T22:28:10.189Z,100.00
2023-04-23T22:33:12.998Z,100.00
2023-04-23T22:38:15.941Z,100.00
2023-04-23T22:43:18.074Z,100.00
2023-04-23T22:48:21.548Z,100.00
2023-04-23T22:53:24.025Z,100.00
2023-04-23T22:58:26.174Z,100.00
2023-04-23T23:03:28.494Z,100.00
2023-04-23T23:08:30.689Z,100.00
2023-04-23T23:13:32.801Z,100.00
2023-04-23T23:18:34.958Z,100.00
2023-04-23T23:23:37.669Z,100.00
2023-04-23T23:28:40.070Z,100.00
2023-04-23T23:33:42.278Z,100.00
2023-04-23T23:38:44.385Z,100.00
2023-04-23T23:43:46.570Z,100.00
2023-04-23T23:48:48.852Z,100.00
2023-04-23T23:53:51.064Z,100.00
2023-04-23T23:58:53.552Z,100.00
